createdAt,value
2022-09-06T00:00:56.587Z,23.9
2022-09-06T00:01:58.231Z,23.9
2022-09-06T00:02:59.818Z,23.9
2022-09-06T00:04:01.925Z,23.9
2022-09-06T00:05:04.025Z,23.9
2022-09-06T00:06:05.587Z,23.9
2022-09-06T00:07:07.174Z,23.9
2022-09-06T00:08:08.884Z,23.9
2022-09-06T00:09:10.526Z,23.9
2022-09-06T00:10:12.061Z,23.9
2022-09-06T00:11:13.676Z,23.9
2022-09-06T00:12:15.344Z,23.9
2022-09-06T00:13:16.915Z,23.9
2022-09-06T00:14:18.455Z,23.9
2022-09-06T00:15:20.065Z,23.9
2022-09-06T00:16:21.679Z,23.9
2022-09-06T00:17:23.574Z,23.8
2022-09-06T00:18:25.190Z,23.8
2022-09-06T00:19:26.906Z,23.8
2022-09-06T00:20:28.438Z,23.8
2022-09-06T00:21:30.200Z,23.8
2022-09-06T00:22:31.715Z,23.8
2022-09-06T00:23:33.264Z,23.8
2022-09-06T00:24:34.799Z,23.8
2022-09-06T00:25:36.358Z,23.8
2022-09-06T00:26:37.939Z,23.8
2022-09-06T00:27:39.525Z,23.8
2022-09-06T00:28:41.003Z,23.8
2022-09-06T00:29:42.531Z,23.8
2022-09-06T00:30:44.132Z,23.8
2022-09-06T00:31:45.880Z,23.8
2022-09-06T00:32:47.530Z,23.8
2022-09-06T00:33:49.067Z,23.8
2022-09-06T00:34:50.651Z,23.8
2022-09-06T00:35:52.185Z,23.8
2022-09-06T00:36:53.727Z,23.8
2022-09-06T00:37:55.316Z,23.8
2022-09-06T00:38:56.865Z,23.8
2022-09-06T00:39:58.437Z,23.8
2022-09-06T00:41:00.387Z,23.8
2022-09-06T00:42:01.931Z,23.8
2022-09-06T00:43:03.525Z,23.8
2022-09-06T00:44:05.172Z,23.8
2022-09-06T00:45:06.821Z,23.8
2022-09-06T00:46:08.470Z,23.8
2022-09-06T00:47:10.664Z,23.8
2022-09-06T00:48:12.271Z,23.8
2022-09-06T00:49:13.810Z,23.8
2022-09-06T00:50:15.339Z,23.8
2022-09-06T00:51:16.879Z,23.8
2022-09-06T00:52:18.423Z,23.8
2022-09-06T00:53:19.993Z,23.8
2022-09-06T00:54:21.613Z,23.7
2022-09-06T00:55:23.209Z,23.7
2022-09-06T00:56:24.738Z,23.7
2022-09-06T00:57:26.244Z,23.7
2022-09-06T00:58:27.889Z,23.7
2022-09-06T00:59:30.210Z,23.7
2022-09-06T01:00:31.752Z,23.7
2022-09-06T01:01:33.502Z,23.7
2022-09-06T01:02:36.092Z,23.7
2022-09-06T01:03:38.733Z,23.7
2022-09-06T01:04:40.287Z,23.7
2022-09-06T01:05:41.863Z,23.7
2022-09-06T01:06:43.404Z,23.7
2022-09-06T01:07:44.944Z,23.7
2022-09-06T01:08:46.549Z,23.7
2022-09-06T01:09:48.082Z,23.7
2022-09-06T01:10:49.669Z,23.7
2022-09-06T01:11:51.276Z,23.7
2022-09-06T01:12:52.814Z,23.7
2022-09-06T01:13:54.562Z,23.7
2022-09-06T01:14:56.109Z,23.7
2022-09-06T01:15:57.659Z,23.7
2022-09-06T01:16:59.708Z,23.7
2022-09-06T01:18:01.256Z,23.7
2022-09-06T01:19:02.845Z,23.6
2022-09-06T01:20:04.381Z,23.7
2022-09-06T01:21:05.986Z,23.6
2022-09-06T01:22:07.600Z,23.7
2022-09-06T01:23:09.144Z,23.7
2022-09-06T01:24:10.707Z,23.7
2022-09-06T01:25:12.229Z,23.7
2022-09-06T01:26:13.792Z,23.7
2022-09-06T01:27:15.324Z,23.7
2022-09-06T01:28:16.851Z,23.6
2022-09-06T01:29:18.416Z,23.6
2022-09-06T01:30:20.083Z,23.6
2022-09-06T01:31:21.753Z,23.6
2022-09-06T01:32:23.694Z,23.6
2022-09-06T01:33:25.355Z,23.6
2022-09-06T01:34:26.905Z,23.6
2022-09-06T01:35:28.415Z,23.6
2022-09-06T01:36:30.087Z,23.6
2022-09-06T01:37:31.630Z,23.6
2022-09-06T01:38:33.172Z,23.6
2022-09-06T01:39:34.784Z,23.6
2022-09-06T01:40:36.720Z,23.6
2022-09-06T01:41:38.461Z,23.6
2022-09-06T01:42:40.168Z,23.6
2022-09-06T01:43:41.710Z,23.6
2022-09-06T01:44:43.262Z,23.6
2022-09-06T01:45:44.825Z,23.6
2022-09-06T01:46:46.620Z,23.6
2022-09-06T01:47:48.163Z,23.6
2022-09-06T01:48:49.700Z,23.6
2022-09-06T01:49:51.247Z,23.6
2022-09-06T01:50:52.857Z,23.6
2022-09-06T01:51:54.428Z,23.6
2022-09-06T01:52:55.983Z,23.6
2022-09-06T01:53:57.519Z,23.6
2022-09-06T01:54:59.078Z,23.6
2022-09-06T01:56:00.685Z,23.6
2022-09-06T01:57:02.266Z,23.5
2022-09-06T01:58:03.797Z,23.5
2022-09-06T01:59:05.461Z,23.5
2022-09-06T02:00:07.057Z,23.5
2022-09-06T02:01:08.711Z,23.5
2022-09-06T02:02:10.833Z,23.5
2022-09-06T02:03:12.561Z,23.5
2022-09-06T02:04:14.141Z,23.5
2022-09-06T02:05:15.742Z,23.5
2022-09-06T02:06:17.359Z,23.5
2022-09-06T02:07:18.991Z,23.6
2022-09-06T02:08:20.634Z,23.5
2022-09-06T02:09:22.483Z,23.5
2022-09-06T02:10:24.137Z,23.5
2022-09-06T02:11:25.723Z,23.5
2022-09-06T02:12:27.262Z,23.5
2022-09-06T02:13:28.803Z,23.5
2022-09-06T02:14:30.346Z,23.5
2022-09-06T02:15:31.935Z,23.5
2022-09-06T02:16:33.588Z,23.5
2022-09-06T02:17:35.417Z,23.5
2022-09-06T02:18:37.022Z,23.5
2022-09-06T02:19:38.591Z,23.5
2022-09-06T02:20:40.136Z,23.5
2022-09-06T02:21:41.726Z,23.5
2022-09-06T02:22:43.464Z,23.5
2022-09-06T02:23:45.022Z,23.5
2022-09-06T02:24:46.561Z,23.5
2022-09-06T02:25:48.101Z,23.5
2022-09-06T02:26:49.657Z,23.5
2022-09-06T02:27:51.249Z,23.5
2022-09-06T02:28:52.964Z,23.5
2022-09-06T02:29:54.487Z,23.5
2022-09-06T02:30:56.116Z,23.5
2022-09-06T02:31:57.867Z,23.5
2022-09-06T02:32:59.550Z,23.5
2022-09-06T02:34:01.102Z,23.5
2022-09-06T02:35:02.750Z,23.5
2022-09-06T02:36:04.355Z,23.5
2022-09-06T02:37:05.897Z,23.5
2022-09-06T02:38:07.439Z,23.5
2022-09-06T02:39:08.988Z,23.5
2022-09-06T02:40:10.622Z,23.5
2022-09-06T02:41:12.588Z,23.5
2022-09-06T02:42:14.148Z,23.5
2022-09-06T02:43:15.803Z,23.5
2022-09-06T02:44:17.341Z,23.5
2022-09-06T02:45:18.881Z,23.5
2022-09-06T02:46:20.782Z,23.5
2022-09-06T02:47:22.949Z,23.5
2022-09-06T02:48:24.469Z,23.5
2022-09-06T02:49:26.447Z,23.4
2022-09-06T02:50:27.986Z,23.4
2022-09-06T02:51:29.594Z,23.4
2022-09-06T02:52:31.144Z,23.4
2022-09-06T02:53:32.675Z,23.4
2022-09-06T02:54:34.216Z,23.4
2022-09-06T02:55:35.747Z,23.4
2022-09-06T02:56:37.328Z,23.4
2022-09-06T02:57:38.950Z,23.4
2022-09-06T02:58:40.485Z,23.4
2022-09-06T02:59:42.037Z,23.4
2022-09-06T03:00:43.589Z,23.4
2022-09-06T03:01:45.391Z,23.4
2022-09-06T03:02:47.560Z,23.4
2022-09-06T03:03:49.787Z,23.4
2022-09-06T03:04:51.353Z,23.4
2022-09-06T03:05:52.886Z,23.4
2022-09-06T03:06:54.496Z,23.4
2022-09-06T03:07:56.113Z,23.4
2022-09-06T03:08:57.750Z,23.4
2022-09-06T03:09:59.290Z,23.4
2022-09-06T03:11:00.906Z,23.4
2022-09-06T03:12:02.710Z,23.4
2022-09-06T03:13:04.387Z,23.3
2022-09-06T03:14:06.028Z,23.4
2022-09-06T03:15:07.614Z,23.4
2022-09-06T03:16:09.217Z,23.3
2022-09-06T03:17:10.786Z,23.3
2022-09-06T03:18:12.424Z,23.3
2022-09-06T03:19:13.960Z,23.3
2022-09-06T03:20:15.499Z,23.3
2022-09-06T03:21:17.061Z,23.3
2022-09-06T03:22:18.724Z,23.3
2022-09-06T03:23:20.235Z,23.3
2022-09-06T03:24:21.781Z,23.3
2022-09-06T03:25:23.321Z,23.3
2022-09-06T03:26:24.950Z,23.3
2022-09-06T03:27:26.689Z,23.3
2022-09-06T03:28:28.490Z,23.3
2022-09-06T03:29:30.706Z,23.3
2022-09-06T03:30:32.288Z,23.3
2022-09-06T03:31:34.088Z,23.3
2022-09-06T03:32:35.639Z,23.3
2022-09-06T03:33:37.186Z,23.3
2022-09-06T03:34:38.732Z,23.3
2022-09-06T03:35:40.269Z,23.3
2022-09-06T03:36:41.894Z,23.3
2022-09-06T03:37:43.529Z,23.3
2022-09-06T03:38:45.067Z,23.3
2022-09-06T03:39:46.625Z,23.3
2022-09-06T03:40:48.550Z,23.3
2022-09-06T03:41:50.095Z,23.3
2022-09-06T03:42:51.719Z,23.3
2022-09-06T03:43:53.253Z,23.3
2022-09-06T03:44:54.787Z,23.3
2022-09-06T03:45:56.452Z,23.3
2022-09-06T03:46:58.684Z,23.3
2022-09-06T03:48:00.344Z,23.3
2022-09-06T03:49:02.036Z,23.3
2022-09-06T03:50:03.717Z,23.2
2022-09-06T03:51:05.313Z,23.2
2022-09-06T03:52:06.961Z,23.2
2022-09-06T03:53:08.667Z,23.2
2022-09-06T03:54:10.250Z,23.2
2022-09-06T03:55:11.796Z,23.2
2022-09-06T03:56:13.420Z,23.2
2022-09-06T03:57:14.962Z,23.2
2022-09-06T03:58:16.622Z,23.2
2022-09-06T03:59:18.273Z,23.2
2022-09-06T04:00:19.963Z,23.2
2022-09-06T04:01:21.569Z,23.2
2022-09-06T04:02:23.712Z,23.2
2022-09-06T04:03:25.743Z,23.2
2022-09-06T04:04:27.283Z,23.2
2022-09-06T04:05:28.829Z,23.2
2022-09-06T04:06:30.427Z,23.2
2022-09-06T04:07:31.967Z,23.2
2022-09-06T04:08:33.514Z,23.2
2022-09-06T04:09:35.231Z,23.2
2022-09-06T04:10:36.877Z,23.2
2022-09-06T04:11:38.676Z,23.2
2022-09-06T04:12:40.276Z,23.2
2022-09-06T04:13:41.949Z,23.2
2022-09-06T04:14:43.577Z,23.2
2022-09-06T04:15:45.112Z,23.2
2022-09-06T04:16:46.767Z,23.2
2022-09-06T04:17:48.700Z,23.2
2022-09-06T04:18:50.291Z,23.2
2022-09-06T04:19:51.856Z,23.2
2022-09-06T04:20:53.526Z,23.2
2022-09-06T04:21:55.122Z,23.2
2022-09-06T04:22:56.653Z,23.2
2022-09-06T04:23:58.215Z,23.2
2022-09-06T04:24:59.763Z,23.2
2022-09-06T04:26:01.281Z,23.2
2022-09-06T04:27:02.813Z,23.2
2022-09-06T04:28:04.354Z,23.2
2022-09-06T04:29:05.942Z,23.2
2022-09-06T04:30:07.521Z,23.2
2022-09-06T04:31:09.219Z,23.2
2022-09-06T04:32:10.892Z,23.2
2022-09-06T04:33:13.084Z,23.2
2022-09-06T04:34:14.891Z,23.3
2022-09-06T04:35:16.494Z,23.3
2022-09-06T04:36:18.107Z,23.3
2022-09-06T04:37:19.649Z,23.3
2022-09-06T04:38:21.305Z,23.3
2022-09-06T04:39:23.445Z,23.3
2022-09-06T04:40:25.099Z,23.3
2022-09-06T04:41:26.646Z,23.3
2022-09-06T04:42:28.290Z,23.3
2022-09-06T04:43:29.913Z,23.3
2022-09-06T04:44:31.478Z,23.3
2022-09-06T04:45:33.148Z,23.4
2022-09-06T04:46:35.025Z,23.4
2022-09-06T04:47:36.585Z,23.4
2022-09-06T04:48:38.200Z,23.4
2022-09-06T04:49:39.821Z,23.4
2022-09-06T04:50:41.359Z,23.4
2022-09-06T04:51:43.166Z,23.4
2022-09-06T04:52:44.731Z,23.5
2022-09-06T04:53:46.304Z,23.5
2022-09-06T04:54:47.833Z,23.5
2022-09-06T04:55:49.357Z,23.5
2022-09-06T04:56:50.979Z,23.5
2022-09-06T04:57:52.575Z,23.5
2022-09-06T04:58:54.173Z,23.5
2022-09-06T04:59:55.754Z,23.6
2022-09-06T05:00:57.417Z,23.6
2022-09-06T05:01:59.649Z,23.6
2022-09-06T05:03:01.856Z,23.6
2022-09-06T05:04:03.533Z,23.6
2022-09-06T05:05:05.073Z,23.6
2022-09-06T05:06:06.611Z,23.7
2022-09-06T05:07:08.222Z,23.7
2022-09-06T05:08:09.812Z,23.7
2022-09-06T05:09:11.360Z,23.8
2022-09-06T05:10:12.902Z,23.8
2022-09-06T05:11:14.440Z,23.8
2022-09-06T05:12:16.035Z,23.8
2022-09-06T05:13:17.573Z,23.8
2022-09-06T05:14:19.109Z,23.8
2022-09-06T05:15:20.723Z,23.8
2022-09-06T05:16:22.328Z,23.9
2022-09-06T05:17:24.234Z,23.9
2022-09-06T05:18:25.808Z,23.9
2022-09-06T05:19:27.797Z,23.9
2022-09-06T05:20:29.454Z,23.9
2022-09-06T05:21:30.979Z,23.9
2022-09-06T05:22:32.601Z,24
2022-09-06T05:23:34.192Z,24
2022-09-06T05:24:35.836Z,24
2022-09-06T05:25:37.362Z,24
2022-09-06T05:26:41.660Z,24.1
2022-09-06T05:27:43.193Z,24.1
2022-09-06T05:28:44.778Z,24.1
2022-09-06T05:29:46.321Z,24.1
2022-09-06T05:30:47.859Z,24.1
2022-09-06T05:31:49.465Z,24.2
2022-09-06T05:32:51.359Z,24.2
2022-09-06T05:33:53.010Z,24.2
2022-09-06T05:34:54.547Z,24.3
2022-09-06T05:35:56.120Z,24.3
2022-09-06T05:36:57.650Z,24.3
2022-09-06T05:37:59.220Z,24.4
2022-09-06T05:39:00.918Z,24.4
2022-09-06T05:40:02.540Z,24.4
2022-09-06T05:41:04.522Z,24.4
2022-09-06T05:42:06.059Z,24.4
2022-09-06T05:43:07.608Z,24.4
2022-09-06T05:44:09.175Z,24.5
2022-09-06T05:45:10.722Z,24.5
2022-09-06T05:46:12.344Z,24.5
2022-09-06T05:47:14.327Z,24.5
2022-09-06T05:48:15.894Z,24.6
2022-09-06T05:49:17.738Z,24.6
2022-09-06T05:50:19.327Z,24.6
2022-09-06T05:51:20.983Z,24.6
2022-09-06T05:52:22.547Z,24.6
2022-09-06T05:53:24.162Z,24.6
2022-09-06T05:54:25.733Z,24.7
2022-09-06T05:55:27.350Z,24.7
2022-09-06T05:56:28.893Z,24.7
2022-09-06T05:57:30.437Z,24.7
2022-09-06T05:58:32.242Z,24.7
2022-09-06T05:59:33.949Z,24.8
2022-09-06T06:00:35.569Z,24.8
2022-09-06T06:01:37.276Z,24.8
2022-09-06T06:02:39.092Z,24.8
2022-09-06T06:03:41.182Z,24.8
2022-09-06T06:04:42.788Z,24.8
2022-09-06T06:05:44.438Z,24.9
2022-09-06T06:06:45.987Z,24.9
2022-09-06T06:07:47.523Z,24.9
2022-09-06T06:08:49.081Z,24.9
2022-09-06T06:09:50.691Z,24.9
2022-09-06T06:10:52.236Z,24.9
2022-09-06T06:11:53.791Z,24.9
2022-09-06T06:12:55.368Z,24.9
2022-09-06T06:13:57.012Z,25
2022-09-06T06:14:58.655Z,25
2022-09-06T06:16:00.336Z,25
2022-09-06T06:17:02.403Z,25
2022-09-06T06:18:04.521Z,25
2022-09-06T06:19:06.176Z,25
2022-09-06T06:20:07.776Z,25.1
2022-09-06T06:21:09.411Z,25.1
2022-09-06T06:22:10.969Z,25.1
2022-09-06T06:23:12.612Z,25.1
2022-09-06T06:24:14.243Z,25.1
2022-09-06T06:25:15.771Z,25.1
2022-09-06T06:26:17.424Z,25.1
2022-09-06T06:27:18.970Z,25.2
2022-09-06T06:28:20.637Z,25.2
2022-09-06T06:29:22.712Z,25.2
2022-09-06T06:30:24.387Z,25.2
2022-09-06T06:31:26.053Z,25.2
2022-09-06T06:32:28.047Z,25.2
2022-09-06T06:33:29.662Z,25.2
2022-09-06T06:34:31.359Z,25.2
2022-09-06T06:35:35.167Z,25.3
2022-09-06T06:36:41.675Z,25.3
2022-09-06T06:37:43.309Z,25.3
2022-09-06T06:38:45.098Z,25.3
2022-09-06T06:39:46.767Z,25.3
2022-09-06T06:40:48.511Z,25.3
2022-09-06T06:41:50.156Z,25.3
2022-09-06T06:42:51.691Z,25.3
2022-09-06T06:43:53.236Z,25.4
2022-09-06T06:44:54.816Z,25.4
2022-09-06T06:45:56.401Z,25.4
2022-09-06T06:46:58.342Z,25.4
2022-09-06T06:47:59.965Z,25.4
2022-09-06T06:49:01.512Z,25.4
2022-09-06T06:50:03.053Z,25.4
2022-09-06T06:51:04.567Z,25.4
2022-09-06T06:52:06.119Z,25.4
2022-09-06T06:53:07.676Z,25.4
2022-09-06T06:54:09.207Z,25.5
2022-09-06T06:55:10.803Z,25.5
2022-09-06T06:56:12.328Z,25.5
2022-09-06T06:57:13.999Z,25.5
2022-09-06T06:58:15.695Z,25.5
2022-09-06T06:59:17.387Z,25.5
2022-09-06T07:00:19.088Z,25.5
2022-09-06T07:01:20.718Z,25.5
2022-09-06T07:02:23.016Z,25.5
2022-09-06T07:03:25.133Z,25.6
2022-09-06T07:04:26.701Z,25.6
2022-09-06T07:07:31.655Z,25.6
2022-09-06T07:08:43.099Z,25.7
2022-09-06T07:11:35.835Z,25.7
2022-09-06T07:12:37.376Z,25.8
2022-09-06T07:13:38.926Z,25.7
2022-09-06T07:14:40.484Z,25.7
2022-09-06T07:15:42.014Z,25.7
2022-09-06T07:16:46.318Z,25.7
2022-09-06T07:17:48.354Z,25.7
2022-09-06T07:18:50.037Z,25.7
2022-09-06T07:21:39.412Z,25.7
2022-09-06T07:22:41.247Z,25.7
2022-09-06T07:25:19.021Z,25.8
2022-09-06T07:26:23.229Z,25.8
2022-09-06T07:28:56.453Z,25.8
2022-09-06T07:29:58.055Z,25.8
2022-09-06T07:30:59.716Z,25.8
2022-09-06T07:32:17.229Z,25.8
2022-09-06T07:33:18.907Z,25.8
2022-09-06T07:34:20.724Z,25.8
2022-09-06T07:35:22.652Z,25.8
2022-09-06T07:36:24.452Z,25.8
2022-09-06T07:37:25.992Z,25.8
2022-09-06T07:38:27.535Z,25.8
2022-09-06T07:39:29.134Z,25.8
2022-09-06T07:40:31.244Z,25.8
2022-09-06T07:41:32.931Z,25.8
2022-09-06T07:42:36.107Z,25.8
2022-09-06T07:43:38.586Z,25.8
2022-09-06T07:44:40.244Z,25.8
2022-09-06T07:45:41.797Z,25.8
2022-09-06T07:46:43.426Z,25.8
2022-09-06T07:48:01.365Z,25.8
2022-09-06T07:49:02.938Z,25.8
2022-09-06T07:52:00.646Z,25.9
2022-09-06T07:55:37.315Z,26
2022-09-06T07:56:38.898Z,25.9
2022-09-06T07:57:40.442Z,25.9
2022-09-06T07:58:41.982Z,25.9
2022-09-06T07:59:43.651Z,25.9
2022-09-06T08:00:45.229Z,25.9
2022-09-06T08:01:47.209Z,25.8
2022-09-06T08:02:49.356Z,25.8
2022-09-06T08:03:50.891Z,25.8
2022-09-06T08:04:52.425Z,25.8
2022-09-06T08:06:09.843Z,25.8
2022-09-06T08:08:59.980Z,25.9
2022-09-06T08:10:02.262Z,25.9
2022-09-06T08:11:03.851Z,25.9
2022-09-06T08:12:05.497Z,25.9
2022-09-06T08:13:07.142Z,25.8
2022-09-06T08:14:08.710Z,25.8
2022-09-06T08:15:10.276Z,25.8
2022-09-06T08:16:11.960Z,25.8
2022-09-06T08:17:13.992Z,25.8
2022-09-06T08:18:15.545Z,25.8
2022-09-06T08:19:17.129Z,25.8
2022-09-06T08:20:18.782Z,25.8
2022-09-06T08:21:20.332Z,25.8
2022-09-06T08:22:21.936Z,25.8
2022-09-06T08:23:23.657Z,25.8
2022-09-06T08:24:25.370Z,25.8
2022-09-06T08:25:26.907Z,25.8
2022-09-06T08:26:28.479Z,25.8
2022-09-06T08:27:30.049Z,25.8
2022-09-06T08:28:31.592Z,25.8
2022-09-06T08:29:33.239Z,25.8
2022-09-06T08:30:34.781Z,25.8
2022-09-06T08:31:36.350Z,25.8
2022-09-06T08:32:38.295Z,25.8
2022-09-06T08:33:40.146Z,25.8
2022-09-06T08:34:41.735Z,25.8
2022-09-06T08:35:43.394Z,25.8
2022-09-06T08:36:44.955Z,25.8
2022-09-06T08:37:46.561Z,25.8
2022-09-06T08:38:48.082Z,25.8
2022-09-06T08:39:49.681Z,25.8
2022-09-06T08:40:51.668Z,25.8
2022-09-06T08:41:53.253Z,25.8
2022-09-06T08:42:54.824Z,25.8
2022-09-06T08:45:59.996Z,25.8
2022-09-06T08:47:01.677Z,25.8
2022-09-06T08:48:03.691Z,25.8
2022-09-06T08:49:05.301Z,25.8
2022-09-06T08:50:06.839Z,25.8
2022-09-06T08:51:08.555Z,25.8
2022-09-06T08:52:10.146Z,25.8
2022-09-06T08:53:18.932Z,25.8
2022-09-06T08:54:20.581Z,25.8
2022-09-06T08:55:22.126Z,25.8
2022-09-06T08:56:23.689Z,25.8
2022-09-06T08:57:25.280Z,25.8
2022-09-06T08:58:26.937Z,25.8
2022-09-06T08:59:28.516Z,25.8
2022-09-06T09:00:30.135Z,25.8
2022-09-06T09:01:32.171Z,25.8
2022-09-06T09:02:33.765Z,25.7
2022-09-06T09:03:35.578Z,25.7
2022-09-06T09:04:37.368Z,25.7
2022-09-06T09:05:38.885Z,25.7
2022-09-06T09:06:40.437Z,25.7
2022-09-06T09:07:41.982Z,25.7
2022-09-06T09:08:43.701Z,25.7
2022-09-06T09:09:45.328Z,25.7
2022-09-06T09:10:46.869Z,25.7
2022-09-06T09:11:48.525Z,25.7
2022-09-06T09:12:50.117Z,25.7
2022-09-06T09:13:51.649Z,25.7
2022-09-06T09:14:57.425Z,25.7
2022-09-06T09:15:59.006Z,25.7
2022-09-06T09:17:01.040Z,25.7
2022-09-06T09:18:02.581Z,25.7
2022-09-06T09:19:04.141Z,25.7
2022-09-06T09:20:05.759Z,25.7
2022-09-06T09:21:07.300Z,25.7
2022-09-06T09:22:08.843Z,25.7
2022-09-06T09:23:10.381Z,25.7
2022-09-06T09:24:11.945Z,25.7
2022-09-06T09:25:13.500Z,25.7
2022-09-06T09:26:15.038Z,25.7
2022-09-06T09:27:16.631Z,25.7
2022-09-06T09:28:18.125Z,25.7
2022-09-06T09:29:22.831Z,25.7
2022-09-06T09:30:53.005Z,25.7
2022-09-06T09:31:54.769Z,25.7
2022-09-06T09:32:56.491Z,25.7
2022-09-06T09:33:58.187Z,25.7
2022-09-06T09:34:59.816Z,25.7
2022-09-06T09:36:01.474Z,25.7
2022-09-06T09:39:07.730Z,25.7
2022-09-06T09:40:09.594Z,25.8
2022-09-06T09:41:11.685Z,25.7
2022-09-06T09:42:13.374Z,25.7
2022-09-06T09:43:15.003Z,25.7
2022-09-06T09:44:16.624Z,25.7
2022-09-06T09:45:18.177Z,25.7
2022-09-06T09:46:19.833Z,25.7
2022-09-06T09:47:21.924Z,25.7
2022-09-06T09:48:23.670Z,25.7
2022-09-06T09:49:25.820Z,25.7
2022-09-06T09:50:27.721Z,25.7
2022-09-06T09:51:29.498Z,25.7
2022-09-06T09:52:31.112Z,25.7
2022-09-06T09:53:32.744Z,25.7
2022-09-06T09:54:34.306Z,25.7
2022-09-06T09:55:35.878Z,25.7
2022-09-06T09:56:37.488Z,25.7
2022-09-06T09:57:39.325Z,25.7
2022-09-06T09:58:40.883Z,25.7
2022-09-06T09:59:42.428Z,25.7
2022-09-06T10:00:43.994Z,25.7
2022-09-06T10:01:45.870Z,25.7
2022-09-06T10:02:47.559Z,25.7
2022-09-06T10:05:51.265Z,25.7
2022-09-06T10:08:08.582Z,25.8
2022-09-06T10:09:10.201Z,25.8
2022-09-06T10:10:11.736Z,25.8
2022-09-06T10:11:13.279Z,25.8
2022-09-06T10:12:14.827Z,25.8
2022-09-06T10:13:16.383Z,25.7
2022-09-06T10:14:18.000Z,25.7
2022-09-06T10:15:19.550Z,25.7
2022-09-06T10:16:21.127Z,25.7
2022-09-06T10:17:22.934Z,25.7
2022-09-06T10:18:24.566Z,25.7
2022-09-06T10:19:26.214Z,25.7
2022-09-06T10:20:27.835Z,25.7
2022-09-06T10:21:29.362Z,25.7
2022-09-06T10:22:30.901Z,25.7
2022-09-06T10:25:34.205Z,25.8
2022-09-06T10:26:35.753Z,25.8
2022-09-06T10:27:39.915Z,25.8
2022-09-06T10:29:13.421Z,25.8
2022-09-06T10:30:14.939Z,25.8
2022-09-06T10:31:16.755Z,25.8
2022-09-06T10:32:18.636Z,25.8
2022-09-06T10:33:20.290Z,25.8
2022-09-06T10:34:22.129Z,25.8
2022-09-06T10:35:23.878Z,25.8
2022-09-06T10:36:25.459Z,25.8
2022-09-06T10:37:27.003Z,25.8
2022-09-06T10:38:28.645Z,25.8
2022-09-06T10:39:31.027Z,25.8
2022-09-06T10:40:32.838Z,25.8
2022-09-06T10:41:34.377Z,25.8
2022-09-06T10:42:35.923Z,25.8
2022-09-06T10:43:37.495Z,25.8
2022-09-06T10:44:39.112Z,25.8
2022-09-06T10:45:40.693Z,25.8
2022-09-06T10:46:42.326Z,25.8
2022-09-06T10:47:44.140Z,25.8
2022-09-06T10:48:45.679Z,25.8
2022-09-06T10:49:47.220Z,25.8
2022-09-06T10:50:48.761Z,25.8
2022-09-06T10:51:50.340Z,25.8
2022-09-06T10:52:51.902Z,25.8
2022-09-06T10:53:53.543Z,25.8
2022-09-06T10:54:55.254Z,25.8
2022-09-06T10:55:59.757Z,25.8
2022-09-06T10:57:03.278Z,25.8
2022-09-06T10:58:21.283Z,25.8
2022-09-06T10:59:39.192Z,25.8
2022-09-06T11:00:40.960Z,25.9
2022-09-06T11:01:42.593Z,25.9
2022-09-06T11:02:45.084Z,25.9
2022-09-06T11:03:55.600Z,25.9
2022-09-06T11:06:45.880Z,25.9
2022-09-06T11:09:51.008Z,26
2022-09-06T11:10:52.645Z,26
2022-09-06T11:11:54.195Z,26
2022-09-06T11:12:55.857Z,26
2022-09-06T11:13:57.366Z,26
2022-09-06T11:15:03.809Z,26
2022-09-06T11:16:05.431Z,25.9
2022-09-06T11:17:07.438Z,25.9
2022-09-06T11:18:09.077Z,25.9
2022-09-06T11:19:10.612Z,25.9
2022-09-06T11:20:12.205Z,25.9
2022-09-06T11:21:17.510Z,25.9
2022-09-06T11:22:21.158Z,25.9
2022-09-06T11:23:22.742Z,25.9
2022-09-06T11:24:24.940Z,25.9
2022-09-06T11:25:26.454Z,25.9
2022-09-06T11:26:27.991Z,25.9
2022-09-06T11:27:29.532Z,25.9
2022-09-06T11:28:31.121Z,26
2022-09-06T11:29:32.784Z,26
2022-09-06T11:30:34.324Z,25.9
2022-09-06T11:33:22.783Z,26
2022-09-06T11:34:24.719Z,26
2022-09-06T11:35:26.274Z,26
2022-09-06T11:36:27.862Z,26
2022-09-06T11:37:29.398Z,26
2022-09-06T11:38:30.984Z,26
2022-09-06T11:41:34.200Z,26.1
2022-09-06T11:42:35.762Z,26.1
2022-09-06T11:43:37.367Z,26.1
2022-09-06T11:44:39.019Z,26.1
2022-09-06T11:45:40.549Z,26.1
2022-09-06T11:46:42.112Z,26.1
2022-09-06T11:47:44.026Z,26.1
2022-09-06T11:48:45.578Z,26.1
2022-09-06T11:49:47.087Z,26.1
2022-09-06T11:50:48.650Z,26.1
2022-09-06T11:51:50.246Z,26.1
2022-09-06T11:52:51.813Z,26.1
2022-09-06T11:53:53.453Z,26.1
2022-09-06T11:54:55.110Z,26.1
2022-09-06T11:55:56.677Z,26.1
2022-09-06T11:56:58.271Z,26.1
2022-09-06T11:57:59.836Z,26.1
2022-09-06T11:59:01.391Z,26.1
2022-09-06T12:00:02.957Z,26.1
2022-09-06T12:01:04.701Z,26.1
2022-09-06T12:02:06.281Z,26.1
2022-09-06T12:05:11.800Z,26.1
2022-09-06T12:06:13.351Z,26.1
2022-09-06T12:07:14.929Z,26.1
2022-09-06T12:08:16.583Z,26.1
2022-09-06T12:09:18.248Z,26.1
2022-09-06T12:10:19.922Z,26.1
2022-09-06T12:11:21.535Z,26.1
2022-09-06T12:12:23.115Z,26.1
2022-09-06T12:13:24.648Z,26.1
2022-09-06T12:14:26.192Z,26.1
2022-09-06T12:15:27.750Z,26.1
2022-09-06T12:16:29.406Z,26.1
2022-09-06T12:17:31.638Z,26.1
2022-09-06T12:18:33.211Z,26.1
2022-09-06T12:19:34.742Z,26.1
2022-09-06T12:20:36.428Z,26.1
2022-09-06T12:21:38.030Z,26.1
2022-09-06T12:22:39.570Z,26.1
2022-09-06T12:23:41.172Z,26.1
2022-09-06T12:24:42.722Z,26.1
2022-09-06T12:25:44.265Z,26.1
2022-09-06T12:26:45.811Z,26.1
2022-09-06T12:27:47.416Z,26.1
2022-09-06T12:28:48.964Z,26.1
2022-09-06T12:29:50.608Z,26.1
2022-09-06T12:30:52.405Z,26.1
2022-09-06T12:31:54.299Z,26.1
2022-09-06T12:32:56.035Z,26.1
2022-09-06T12:33:57.661Z,26.1
2022-09-06T12:37:07.099Z,26.2
2022-09-06T12:38:08.680Z,26.2
2022-09-06T12:39:10.227Z,26.2
2022-09-06T12:40:11.886Z,26.1
2022-09-06T12:41:13.885Z,26.1
2022-09-06T12:42:15.427Z,26.1
2022-09-06T12:43:17.023Z,26.1
2022-09-06T12:44:18.635Z,26.1
2022-09-06T12:45:22.900Z,26.1
2022-09-06T12:46:29.265Z,26.1
2022-09-06T12:47:31.199Z,26.1
2022-09-06T12:48:32.894Z,26.1
2022-09-06T12:49:34.599Z,26.1
2022-09-06T12:50:36.163Z,26.1
2022-09-06T12:51:37.812Z,26.1
2022-09-06T12:52:39.465Z,26
2022-09-06T12:53:41.043Z,26
2022-09-06T12:54:42.587Z,26
2022-09-06T12:55:44.181Z,26
2022-09-06T12:56:45.776Z,26
2022-09-06T12:57:47.408Z,26
2022-09-06T12:58:48.962Z,26
2022-09-06T12:59:50.548Z,26
2022-09-06T13:00:52.138Z,26
2022-09-06T13:01:53.784Z,26
2022-09-06T13:02:56.076Z,26
2022-09-06T13:03:58.580Z,26
2022-09-06T13:05:00.131Z,26
2022-09-06T13:06:01.683Z,26
2022-09-06T13:07:03.234Z,26
2022-09-06T13:08:04.805Z,26
2022-09-06T13:09:06.354Z,26
2022-09-06T13:10:08.042Z,25.9
2022-09-06T13:11:09.601Z,25.9
2022-09-06T13:12:11.171Z,25.9
2022-09-06T13:13:12.788Z,25.9
2022-09-06T13:14:14.725Z,25.9
2022-09-06T13:15:16.422Z,26
2022-09-06T13:16:18.041Z,26
2022-09-06T13:17:19.868Z,26
2022-09-06T13:18:21.412Z,26
2022-09-06T13:19:23.197Z,26
2022-09-06T13:20:24.734Z,26
2022-09-06T13:21:26.344Z,26
2022-09-06T13:22:27.942Z,26
2022-09-06T13:23:29.588Z,26
2022-09-06T13:24:31.116Z,26
2022-09-06T13:25:32.657Z,26
2022-09-06T13:26:34.282Z,26
2022-09-06T13:27:35.952Z,26
2022-09-06T13:28:37.467Z,26
2022-09-06T13:29:39.064Z,26
2022-09-06T13:30:40.622Z,26
2022-09-06T13:31:42.260Z,26
2022-09-06T13:32:44.234Z,26
2022-09-06T13:33:45.923Z,26
2022-09-06T13:34:47.507Z,26
2022-09-06T13:35:49.048Z,26
2022-09-06T13:36:51.374Z,26
2022-09-06T13:37:52.885Z,26
2022-09-06T13:38:54.436Z,26
2022-09-06T13:39:56.002Z,26
2022-09-06T13:41:16.243Z,26
2022-09-06T13:42:18.650Z,26
2022-09-06T13:43:20.202Z,26
2022-09-06T13:44:21.838Z,26
2022-09-06T13:45:23.420Z,26
2022-09-06T13:46:25.035Z,26
2022-09-06T13:47:27.238Z,26
2022-09-06T13:48:29.401Z,26
2022-09-06T13:49:31.029Z,26.1
2022-09-06T13:50:32.578Z,26
2022-09-06T13:51:34.107Z,26
2022-09-06T13:52:35.690Z,26
2022-09-06T13:53:37.291Z,26
2022-09-06T13:54:39.034Z,26
2022-09-06T13:55:40.544Z,26
2022-09-06T13:56:42.074Z,26
2022-09-06T13:57:43.670Z,26
2022-09-06T13:58:45.206Z,26
2022-09-06T13:59:46.755Z,26
2022-09-06T14:00:48.355Z,26
2022-09-06T14:01:50.095Z,26
2022-09-06T14:02:52.010Z,26
2022-09-06T14:03:53.867Z,26
2022-09-06T14:04:55.397Z,26
2022-09-06T14:05:56.929Z,26
2022-09-06T14:06:58.550Z,26
2022-09-06T14:08:00.199Z,26
2022-09-06T14:09:09.612Z,26
2022-09-06T14:10:12.354Z,26
2022-09-06T14:11:14.028Z,26
2022-09-06T14:12:15.635Z,26
2022-09-06T14:13:17.220Z,26
2022-09-06T14:14:18.794Z,26
2022-09-06T14:15:20.386Z,26
2022-09-06T14:16:21.944Z,25.9
2022-09-06T14:17:23.707Z,25.9
2022-09-06T14:18:25.346Z,25.9
2022-09-06T14:19:27.560Z,25.9
2022-09-06T14:20:29.158Z,25.9
2022-09-06T14:21:30.747Z,25.9
2022-09-06T14:22:32.401Z,25.9
2022-09-06T14:23:33.975Z,25.9
2022-09-06T14:24:35.529Z,25.9
2022-09-06T14:25:37.243Z,25.9
2022-09-06T14:26:38.845Z,25.9
2022-09-06T14:27:40.430Z,25.9
2022-09-06T14:28:42.156Z,25.9